Time;durP1;ratioP1;P1;durP2;ratioP2;P2;SDS_P1;SDS_P2;PMS_P1;PMS_P2;Temp;Humidity;BMP_temperature;BMP_pressure;BME280_temperature;BME280_humidity;BME280_pressure;Samples;Min_cycle;Max_cycle;Signal;HPM_P1;HPM_P2
2021/12/14 00:01:52;;;;;;;37.45;27.37;;;;;;;;;;4376807;32;20058;-74
2021/12/14 00:04:25;;;;;;;38.17;27.95;;;;;;;;;;4376706;32;20064;-73
2021/12/14 00:07:18;;;;;;;42.25;29.02;;;;;;;;;;4377010;32;20039;-74
2021/12/14 00:13:04;;;;;;;37.80;28.75;;;;;;;;;;4359934;32;20481;-73
2021/12/14 00:18:41;;;;;;;44.97;29.23;;;;;;;;;;4376543;32;20101;-73
2021/12/14 00:21:09;;;;;;;39.28;27.92;;;;;;;;;;4376054;32;20085;-73
2021/12/14 00:24:09;;;;;;;37.42;27.40;;;;;;;;;;4375251;32;20327;-74
2021/12/14 00:26:44;;;;;;;41.08;28.02;;;;;;;;;;4373012;32;20083;-74
2021/12/14 00:29:31;;;;;;;40.50;27.73;;;;;;;;;;4360807;32;20481;-73
2021/12/14 00:31:58;;;;;;;35.92;26.98;;;;;;;;;;4374942;32;20067;-73
2021/12/14 00:34:44;;;;;;;39.95;26.80;;;;;;;;;;4374627;32;20032;-74
2021/12/14 00:37:48;;;;;;;39.42;27.95;;;;;;;;;;4374625;32;20027;-73
2021/12/14 00:40:37;;;;;;;37.63;27.80;;;;;;;;;;4370874;32;20103;-74
2021/12/14 00:46:42;;;;;;;41.10;28.60;;;;;;;;;;4367025;32;20361;-73
2021/12/14 00:49:15;;;;;;;39.20;28.45;;;;;;;;;;4358836;32;20113;-74
2021/12/14 00:51:50;;;;;;;36.38;27.30;;;;;;;;;;4346017;33;20077;-74
2021/12/14 00:54:16;;;;;;;42.67;29.83;;;;;;;;;;4372416;32;20061;-74
2021/12/14 00:56:41;;;;;;;;;;;;;;;;;;4374833;32;20400;-73
2021/12/14 00:59:08;;;;;;;39.88;29.23;;;;;;;;;;4375645;32;19941;-73
2021/12/14 01:02:01;;;;;;;;;;;;;;;;;;;;;
2021/12/14 01:04:32;;;;;;;42.50;32.38;;;;;;;;;;4375523;32;20057;-74
2021/12/14 01:06:58;;;;;;;45.53;33.63;;;;;;;;;;4360739;32;20054;-73
2021/12/14 01:12:49;;;;;;;46.35;34.22;;;;;;;;;;4360928;32;20075;-73
2021/12/14 01:15:26;;;;;;;47.05;35.03;;;;;;;;;;4361047;32;20076;-74
2021/12/14 01:18:02;;;;;;;;;;;;;;;;;;4354694;32;20102;-74
2021/12/14 01:20:35;;;;;;;51.15;34.55;;;;;;;;;;4355298;33;19938;-73
2021/12/14 01:26:05;;;;;;;49.47;34.88;;;;;;;;;;4314482;33;20028;-74
2021/12/14 01:28:37;;;;;;;52.33;35.60;;;;;;;;;;4348694;32;20077;-73
2021/12/14 01:33:46;;;;;;;54.33;38.42;;;;;;;;;;4361360;32;20046;-73
2021/12/14 01:37:14;;;;;;;51.13;36.03;;;;;;;;;;4360558;33;20385;-74
2021/12/14 01:42:05;;;;;;;54.78;39.30;;;;;;;;;;4360370;32;20053;-73
2021/12/14 01:44:33;;;;;;;58.33;39.40;;;;;;;;;;4360959;32;20035;-73
2021/12/14 01:47:10;;;;;;;53.35;38.58;;;;;;;;;;4361254;32;20066;-74
2021/12/14 01:49:54;;;;;;;54.25;38.90;;;;;;;;;;4360636;32;20104;-73
2021/12/14 01:52:32;;;;;;;;;;;;;;;;;;;;;
2021/12/14 01:58:17;;;;;;;60.53;40.28;;;;;;;;;;4360279;32;20050;-74
2021/12/14 02:01:01;;;;;;;62.47;42.05;;;;;;;;;;4356511;32;20034;-73
2021/12/14 02:03:31;;;;;;;60.70;41.88;;;;;;;;;;4374913;32;20117;-74
2021/12/14 02:06:04;;;;;;;60.20;41.50;;;;;;;;;;4375090;32;20031;-74
2021/12/14 02:08:33;;;;;;;61.95;42.40;;;;;;;;;;4374064;32;20080;-74
2021/12/14 02:11:02;;;;;;;58.55;41.03;;;;;;;;;;4374633;32;20413;-73
2021/12/14 02:13:58;;;;;;;59.20;41.28;;;;;;;;;;4375333;32;20030;-73
2021/12/14 02:16:26;;;;;;;62.62;42.45;;;;;;;;;;4374146;32;20073;-73
2021/12/14 02:19:00;;;;;;;63.10;42.42;;;;;;;;;;4375603;32;20039;-73
2021/12/14 02:21:25;;;;;;;65.05;42.92;;;;;;;;;;4374614;32;20070;-74
2021/12/14 02:24:11;;;;;;;;;;;;;;;;;;4375997;32;20367;-74
2021/12/14 02:26:37;;;;;;;62.13;43.22;;;;;;;;;;4374515;32;19967;-74
2021/12/14 02:29:24;;;;;;;62.58;42.30;;;;;;;;;;4374396;32;20031;-74
2021/12/14 02:31:53;;;;;;;;;;;;;;;;;;4375472;32;20140;-74
2021/12/14 02:34:18;;;;;;;68.45;41.55;;;;;;;;;;4374401;32;20313;-74
2021/12/14 02:36:45;;;;;;;;;;;;;;;;;;4375474;32;20030;-74
2021/12/14 02:39:48;;;;;;;64.25;40.60;;;;;;;;;;4374535;32;19957;-73
2021/12/14 02:42:38;;;;;;;61.67;42.22;;;;;;;;;;4387756;32;20038;-73
2021/12/14 02:45:08;;;;;;;58.03;39.53;;;;;;;;;;4390078;32;20387;-73
2021/12/14 02:47:33;;;;;;;59.10;40.28;;;;;;;;;;4389266;32;20035;-75
2021/12/14 02:49:58;;;;;;;;;;;;;;;;;;4366746;32;20073;-74
2021/12/14 02:52:31;;;;;;;66.62;42.97;;;;;;;;;;4362267;32;19950;-73
2021/12/14 02:55:01;;;;;;;59.35;40.58;;;;;;;;;;4373048;32;20470;-74
2021/12/14 02:57:29;;;;;;;58.30;39.42;;;;;;;;;;4374901;32;20043;-74
2021/12/14 02:59:54;;;;;;;63.72;42.28;;;;;;;;;;4374645;32;20090;-74
2021/12/14 03:02:19;;;;;;;;;;;;;;;;;;4375629;32;20031;-74
2021/12/14 03:04:47;;;;;;;59.03;37.95;;;;;;;;;;4377140;32;20297;-74
2021/12/14 03:07:13;;;;;;;55.40;37.25;;;;;;;;;;4363891;32;20138;-74
2021/12/14 03:12:47;;;;;;;53.38;38.75;;;;;;;;;;4377701;32;20104;-74
2021/12/14 03:15:23;;;;;;;51.95;36.63;;;;;;;;;;4377110;32;20039;-73
2021/12/14 03:17:50;;;;;;;48.70;36.08;;;;;;;;;;4363367;32;20077;-74
2021/12/14 03:20:18;;;;;;;48.30;36.17;;;;;;;;;;4376904;32;20084;-73
2021/12/14 03:22:50;;;;;;;46.78;34.58;;;;;;;;;;4363751;32;20085;-74
2021/12/14 03:25:18;;;;;;;52.13;36.75;;;;;;;;;;4377519;32;20467;-73
2021/12/14 03:27:44;;;;;;;46.13;33.45;;;;;;;;;;4376267;32;20058;-73
2021/12/14 03:30:48;;;;;;;51.72;34.25;;;;;;;;;;4376941;32;20487;-73
2021/12/14 03:33:18;;;;;;;46.53;32.60;;;;;;;;;;4346957;32;20031;-74
2021/12/14 03:36:16;;;;;;;45.38;31.50;;;;;;;;;;4379853;32;20034;-73
2021/12/14 03:39:00;;;;;;;41.47;30.42;;;;;;;;;;4367470;32;20068;-74
2021/12/14 03:41:28;;;;;;;44.95;31.95;;;;;;;;;;4392164;32;20053;-73
2021/12/14 03:43:59;;;;;;;46.28;32.35;;;;;;;;;;4392127;32;20030;-74
2021/12/14 03:46:32;;;;;;;41.63;30.85;;;;;;;;;;4379661;32;20085;-74
2021/12/14 03:48:59;;;;;;;42.15;30.25;;;;;;;;;;4376799;32;20046;-74
2021/12/14 03:51:27;;;;;;;37.85;28.10;;;;;;;;;;4376588;32;20076;-73
2021/12/14 03:53:56;;;;;;;44.42;31.52;;;;;;;;;;4376682;32;20035;-74
2021/12/14 03:56:29;;;;;;;41.25;29.65;;;;;;;;;;4377180;32;20038;-73
2021/12/14 03:58:55;;;;;;;40.33;28.85;;;;;;;;;;4377181;32;20064;-73
2021/12/14 04:01:20;;;;;;;;;;;;;;;;;;4362971;32;20508;-74
2021/12/14 04:03:51;;;;;;;38.75;29.42;;;;;;;;;;4376690;32;19965;-73
2021/12/14 04:06:16;;;;;;;39.83;29.35;;;;;;;;;;4363742;32;20207;-73
2021/12/14 04:08:44;;;;;;;;;;;;;;;;;;4376534;32;20050;-74
2021/12/14 04:11:10;;;;;;;41.03;27.65;;;;;;;;;;4363242;32;19957;-74
2021/12/14 04:13:42;;;;;;;42.92;30.50;;;;;;;;;;4375340;32;20460;-74
2021/12/14 04:16:08;;;;;;;37.78;27.77;;;;;;;;;;4376824;32;20095;-73
2021/12/14 04:18:34;;;;;;;39.22;27.33;;;;;;;;;;4363039;32;20054;-74
2021/12/14 04:21:00;;;;;;;;;;;;;;;;;;4376447;32;20057;-73
2021/12/14 04:23:27;;;;;;;41.58;27.08;;;;;;;;;;4376588;32;20017;-73
2021/12/14 04:25:57;;;;;;;39.20;27.50;;;;;;;;;;4380499;32;20057;-74
2021/12/14 04:28:25;;;;;;;37.05;27.42;;;;;;;;;;4382134;32;20038;-73
2021/12/14 04:30:59;;;;;;;37.53;27.02;;;;;;;;;;4361017;32;20058;-73
2021/12/14 04:33:30;;;;;;;38.13;25.62;;;;;;;;;;4349037;32;20034;-73
2021/12/14 04:35:59;;;;;;;35.10;25.23;;;;;;;;;;4376553;32;20034;-73
2021/12/14 04:38:45;;;;;;;32.22;25.77;;;;;;;;;;4372579;32;20031;-74
2021/12/14 04:52:28;;;;;;;33.67;23.10;;;;;;;;;;4372737;32;20065;-73
2021/12/14 04:54:58;;;;;;;33.40;24.77;;;;;;;;;;4362106;32;20097;-74
2021/12/14 04:57:34;;;;;;;31.87;23.62;;;;;;;;;;4369950;32;20102;-74
2021/12/14 05:00:24;;;;;;;29.83;22.50;;;;;;;;;;4371120;32;20046;-74
2021/12/14 05:02:50;;;;;;;34.20;24.27;;;;;;;;;;4376172;32;20038;-74
2021/12/14 05:05:48;;;;;;;32.75;23.20;;;;;;;;;;4376353;32;20566;-74
2021/12/14 05:10:56;;;;;;;28.17;22.02;;;;;;;;;;4375453;32;19946;-73
2021/12/14 05:13:23;;;;;;;33.20;21.87;;;;;;;;;;4375825;32;20019;-73
2021/12/14 05:15:48;;;;;;;31.62;22.27;;;;;;;;;;4376583;32;20019;-73
2021/12/14 05:18:14;;;;;;;;;;;;;;;;;;4366928;32;20435;-73
2021/12/14 05:20:43;;;;;;;30.05;22.02;;;;;;;;;;4373014;32;19938;-73
2021/12/14 05:23:09;;;;;;;37.35;23.95;;;;;;;;;;4364456;32;20035;-73
2021/12/14 05:25:34;;;;;;;;;;;;;;;;;;4365992;32;20093;-74
2021/12/14 05:28:04;;;;;;;31.12;22.33;;;;;;;;;;4349863;32;20332;-73
2021/12/14 05:33:51;;;;;;;28.30;22.00;;;;;;;;;;4375753;32;20074;-74
2021/12/14 05:36:17;;;;;;;33.35;22.10;;;;;;;;;;4375490;32;20073;-74
2021/12/14 05:44:34;;;;;;;30.77;21.75;;;;;;;;;;4371700;32;20106;-74
2021/12/14 05:47:31;;;;;;;30.05;21.45;;;;;;;;;;4370345;32;20080;-74
2021/12/14 05:49:59;;;;;;;33.35;22.23;;;;;;;;;;4369996;32;20051;-73
2021/12/14 05:52:55;;;;;;;35.28;23.23;;;;;;;;;;4373672;32;20012;-74
2021/12/14 05:55:56;;;;;;;41.00;24.12;;;;;;;;;;4374955;32;20106;-74
2021/12/14 05:58:22;;;;;;;37.42;23.87;;;;;;;;;;4358009;32;20031;-75
2021/12/14 06:00:48;;;;;;;;;;;;;;;;;;4377656;32;20038;-74
2021/12/14 06:03:33;;;;;;;34.00;22.48;;;;;;;;;;4375292;32;19980;-74
2021/12/14 06:06:01;;;;;;;36.78;23.90;;;;;;;;;;4375924;32;20111;-74
2021/12/14 06:08:28;;;;;;;32.78;22.70;;;;;;;;;;4374755;32;20085;-74
2021/12/14 06:11:06;;;;;;;34.63;23.60;;;;;;;;;;4374903;32;20023;-74
2021/12/14 06:16:39;;;;;;;33.05;23.05;;;;;;;;;;4375474;32;20444;-74
2021/12/14 06:19:35;;;;;;;30.45;22.65;;;;;;;;;;4374736;32;20024;-73
2021/12/14 06:22:22;;;;;;;35.65;24.55;;;;;;;;;;4374887;32;20023;-75
2021/12/14 06:24:47;;;;;;;;;;;;;;;;;;4375265;32;20026;-75
2021/12/14 06:27:23;;;;;;;30.85;23.20;;;;;;;;;;4374847;32;19938;-75
2021/12/14 06:30:09;;;;;;;35.13;23.70;;;;;;;;;;4360917;32;20057;-74
2021/12/14 06:32:47;;;;;;;;;;;;;;;;;;;;;
2021/12/14 06:38:29;;;;;;;34.33;22.92;;;;;;;;;;4355944;33;20050;-73
2021/12/14 06:44:07;;;;;;;39.10;24.30;;;;;;;;;;4362668;32;20377;-74
2021/12/14 06:46:59;;;;;;;35.45;23.58;;;;;;;;;;4363037;32;20061;-74
2021/12/14 06:49:56;;;;;;;;;;;;;;;;;;;;;
2021/12/14 06:52:24;;;;;;;39.65;24.25;;;;;;;;;;4369884;32;20046;-73
2021/12/14 06:58:29;;;;;;;;;;;;;;;;;;;;;
2021/12/14 07:01:09;;;;;;;42.13;25.00;;;;;;;;;;4301256;33;20032;-73
2021/12/14 07:09:38;;;;;;;;;;;;;;;;;;4377261;32;20045;-73
2021/12/14 07:15:38;;;;;;;39.30;26.75;;;;;;;;;;4356183;32;20200;-73
2021/12/14 07:21:11;;;;;;;45.72;29.00;;;;;;;;;;4313998;33;20047;-74
2021/12/14 07:26:53;;;;;;;39.72;25.85;;;;;;;;;;4349254;32;20046;-74
2021/12/14 07:42:03;;;;;;;41.55;28.58;;;;;;;;;;4301339;33;20083;-74
2021/12/14 07:44:46;;;;;;;36.70;25.45;;;;;;;;;;4301432;33;20043;-74
2021/12/14 07:47:34;;;;;;;41.63;28.62;;;;;;;;;;4347585;32;20123;-74
2021/12/14 07:50:00;;;;;;;43.17;28.50;;;;;;;;;;4374534;32;20022;-74
2021/12/14 07:52:25;;;;;;;;;;;;;;;;;;4362892;32;20086;-74
2021/12/14 07:55:23;;;;;;;44.95;28.20;;;;;;;;;;4365281;32;19934;-74
2021/12/14 07:57:49;;;;;;;42.88;26.52;;;;;;;;;;4349413;32;20016;-73
2021/12/14 08:00:14;;;;;;;;;;;;;;;;;;4365572;32;20065;-74
2021/12/14 08:02:47;;;;;;;43.46;29.46;;;;;;;;;;4376403;32;20233;-74
2021/12/14 08:05:34;;;;;;;41.00;28.45;;;;;;;;;;4376681;32;20080;-74
2021/12/14 08:08:09;;;;;;;;;;;;;;;;;;4370081;32;20515;-74
2021/12/14 08:10:44;;;;;;;44.83;29.80;;;;;;;;;;4365341;32;19938;-73
2021/12/14 08:16:03;;;;;;;44.80;29.35;;;;;;;;;;4344695;33;20066;-73
2021/12/14 08:18:33;;;;;;;46.80;30.12;;;;;;;;;;4372808;32;20030;-74
2021/12/14 08:21:05;;;;;;;49.50;30.02;;;;;;;;;;4376309;32;20019;-75
2021/12/14 08:23:37;;;;;;;49.50;29.33;;;;;;;;;;4376575;32;20405;-75
2021/12/14 08:26:05;;;;;;;50.60;30.67;;;;;;;;;;4373395;32;20069;-74
2021/12/14 08:28:33;;;;;;;51.63;31.12;;;;;;;;;;4375898;32;20076;-75
2021/12/14 08:31:00;;;;;;;49.28;29.70;;;;;;;;;;4370681;32;20015;-75
2021/12/14 08:36:23;;;;;;;55.97;34.50;;;;;;;;;;4343698;33;20028;-75
2021/12/14 08:45:33;;;;;;;58.45;37.33;;;;;;;;;;4327167;33;20046;-74
2021/12/14 08:48:33;;;;;;;;;;;;;;;;;;;;;
2021/12/14 08:54:44;;;;;;;63.03;35.17;;;;;;;;;;4315471;33;20071;-74
2021/12/14 09:00:32;;;;;;;63.35;36.80;;;;;;;;;;4309880;33;20086;-75
2021/12/14 09:06:03;;;;;;;57.00;33.95;;;;;;;;;;4315281;33;20098;-75
2021/12/14 09:11:36;;;;;;;61.72;36.05;;;;;;;;;;4311140;33;20024;-75
2021/12/14 09:14:02;;;;;;;63.92;37.65;;;;;;;;;;4360038;33;20102;-74
2021/12/14 09:16:37;;;;;;;67.30;38.85;;;;;;;;;;4360479;32;20451;-74
2021/12/14 09:25:10;;;;;;;69.32;38.47;;;;;;;;;;4346181;33;20062;-74
2021/12/14 09:36:51;;;;;;;70.87;39.45;;;;;;;;;;4299355;33;20054;-74
2021/12/14 09:39:33;;;;;;;67.20;38.55;;;;;;;;;;4294076;33;20626;-74
2021/12/14 09:45:39;;;;;;;64.45;39.03;;;;;;;;;;4293173;33;20021;-75
2021/12/14 09:48:27;;;;;;;58.63;37.05;;;;;;;;;;4314234;33;20028;-75
2021/12/14 09:54:19;;;;;;;64.50;36.28;;;;;;;;;;4304117;33;20025;-74
2021/12/14 09:56:51;;;;;;;68.57;38.28;;;;;;;;;;4317708;33;20095;-75
2021/12/14 09:59:17;;;;;;;63.67;35.72;;;;;;;;;;4352776;33;20113;-75
2021/12/14 10:01:54;;;;;;;59.15;34.85;;;;;;;;;;4363770;32;20093;-75
2021/12/14 10:04:57;;;;;;;59.72;36.28;;;;;;;;;;4361178;32;20065;-74
2021/12/14 10:07:22;;;;;;;58.15;35.17;;;;;;;;;;4373244;32;20034;-75
2021/12/14 10:09:51;;;;;;;62.22;37.72;;;;;;;;;;4374969;32;20057;-74
2021/12/14 10:15:00;;;;;;;69.55;39.38;;;;;;;;;;4371878;32;20093;-74
2021/12/14 10:17:26;;;;;;;60.10;36.88;;;;;;;;;;4377971;32;20062;-74
2021/12/14 10:19:51;;;;;;;;;;;;;;;;;;4378625;32;20091;-74
2021/12/14 10:22:23;;;;;;;62.78;37.22;;;;;;;;;;4377948;32;19934;-75
2021/12/14 10:24:50;;;;;;;53.50;33.47;;;;;;;;;;4377722;32;20081;-75
2021/12/14 10:27:27;;;;;;;57.85;37.95;;;;;;;;;;4377604;32;20108;-73
2021/12/14 10:30:37;;;;;;;;;;;;;;;;;;;;;
2021/12/14 10:33:07;;;;;;;59.17;37.75;;;;;;;;;;4378409;32;20069;-75
2021/12/14 10:35:39;;;;;;;61.65;37.38;;;;;;;;;;4378116;32;20114;-74
2021/12/14 10:38:25;;;;;;;54.70;35.80;;;;;;;;;;4378287;32;20053;-74
2021/12/14 10:43:44;;;;;;;54.85;33.92;;;;;;;;;;4367241;32;20065;-74
2021/12/14 10:46:09;;;;;;;;;;;;;;;;;;4364489;32;20031;-74
2021/12/14 10:48:47;;;;;;;51.70;34.22;;;;;;;;;;4378467;32;19953;-74
2021/12/14 10:51:14;;;;;;;58.97;36.72;;;;;;;;;;4378116;32;20051;-75
2021/12/14 10:53:42;;;;;;;58.95;36.15;;;;;;;;;;4377803;32;20023;-74
2021/12/14 10:56:18;;;;;;;58.75;37.90;;;;;;;;;;4377047;32;20034;-74
2021/12/14 10:58:52;;;;;;;57.50;37.97;;;;;;;;;;4377506;32;20049;-74
2021/12/14 11:01:20;;;;;;;60.90;38.63;;;;;;;;;;4362794;32;20058;-74
2021/12/14 11:03:51;;;;;;;63.40;40.15;;;;;;;;;;4348415;33;20100;-74
2021/12/14 11:06:21;;;;;;;60.97;39.60;;;;;;;;;;4363117;32;20490;-74
2021/12/14 11:08:59;;;;;;;85.90;45.12;;;;;;;;;;4363239;32;20089;-74
2021/12/14 11:11:36;;;;;;;81.47;44.15;;;;;;;;;;4349123;33;20431;-73
2021/12/14 11:14:05;;;;;;;83.65;46.55;;;;;;;;;;4362267;32;20027;-74
2021/12/14 11:18:08;;;;;;;70.93;42.67;;;;;;;;;;4349198;33;20033;-74
2021/12/14 11:31:55;;;;;;;85.97;46.13;;;;;;;;;;4350689;33;20105;-75
2021/12/14 11:34:45;;;;;;;84.90;44.00;;;;;;;;;;4360280;32;20114;-71
2021/12/14 11:37:48;;;;;;;85.95;45.20;;;;;;;;;;4360741;32;20020;-75
2021/12/14 11:40:27;;;;;;;;;;;;;;;;;;;;;
2021/12/14 11:43:21;;;;;;;79.75;45.55;;;;;;;;;;4329946;33;20084;-75
2021/12/14 11:46:04;;;;;;;81.68;46.05;;;;;;;;;;4330330;33;20070;-75
2021/12/14 11:48:45;;;;;;;;;;;;;;;;;;;;;
2021/12/14 11:51:48;;;;;;;85.85;47.25;;;;;;;;;;4361262;32;20055;-75
2021/12/14 11:54:17;;;;;;;89.37;50.38;;;;;;;;;;4346748;33;20074;-75
2021/12/14 11:56:45;;;;;;;92.28;47.22;;;;;;;;;;4335962;33;20040;-75
2021/12/14 11:59:16;;;;;;;84.30;46.78;;;;;;;;;;4361116;33;20043;-75
2021/12/14 12:01:52;;;;;;;94.25;50.08;;;;;;;;;;4365139;32;20110;-74
2021/12/14 12:10:12;;;;;;;90.00;46.65;;;;;;;;;;4359662;32;20050;-74
2021/12/14 12:22:37;;;;;;;88.72;48.13;;;;;;;;;;4370200;32;20471;-74
2021/12/14 12:25:00;;;;;;;90.87;48.30;;;;;;;;;;4375633;32;20035;-74
2021/12/14 12:27:40;;;;;;;94.75;48.45;;;;;;;;;;4376079;32;20061;-74
2021/12/14 12:30:33;;;;;;;89.32;49.63;;;;;;;;;;4376456;32;20097;-73
2021/12/14 12:39:50;;;;;;;92.68;47.13;;;;;;;;;;4315957;33;20051;-74
2021/12/14 12:42:35;;;;;;;93.28;49.15;;;;;;;;;;4329666;33;20058;-73
2021/12/14 12:45:01;;;;;;;94.22;50.10;;;;;;;;;;4363954;32;20065;-73
2021/12/14 12:47:33;;;;;;;;;;;;;;;;;;4376165;32;20415;-73
2021/12/14 12:50:22;;;;;;;;;;;;;;;;;;;;;
2021/12/14 12:52:48;;;;;;;97.62;49.03;;;;;;;;;;4376503;32;20049;-74
2021/12/14 12:55:13;;;;;;;;;;;;;;;;;;4376718;32;20345;-73
2021/12/14 12:57:53;;;;;;;96.22;47.80;;;;;;;;;;4375547;32;19938;-73
2021/12/14 13:00:56;;;;;;;91.20;48.75;;;;;;;;;;4375608;32;20417;-73
2021/12/14 13:07:03;;;;;;;86.57;50.67;;;;;;;;;;4367744;32;20093;-73
2021/12/14 13:09:34;;;;;;;93.60;50.55;;;;;;;;;;4375005;32;20052;-73
2021/12/14 13:11:59;;;;;;;90.22;47.75;;;;;;;;;;4375827;32;20031;-73
2021/12/14 13:14:34;;;;;;;;;;;;;;;;;;4375994;32;20105;-73
2021/12/14 13:17:18;;;;;;;;;;;;;;;;;;;;;
2021/12/14 13:20:10;;;;;;;70.32;39.95;;;;;;;;;;4375283;32;20043;-75
2021/12/14 13:25:50;;;;;;;73.82;38.95;;;;;;;;;;4328861;33;20396;-73
2021/12/14 13:28:40;;;;;;;68.97;39.13;;;;;;;;;;4328486;33;20044;-74
2021/12/14 13:31:42;;;;;;;74.70;40.35;;;;;;;;;;4328686;33;20514;-73
2021/12/14 13:34:12;;;;;;;77.50;39.38;;;;;;;;;;4329050;33;20043;-73
2021/12/14 13:36:47;;;;;;;72.72;38.25;;;;;;;;;;4328850;33;20062;-73
2021/12/14 13:39:45;;;;;;;73.87;40.47;;;;;;;;;;4328920;33;20051;-73
2021/12/14 13:42:10;;;;;;;88.03;42.40;;;;;;;;;;4333223;32;20139;-73
2021/12/14 13:44:35;;;;;;;;;;;;;;;;;;4376674;32;20050;-74
2021/12/14 13:49:46;;;;;;;87.30;45.08;;;;;;;;;;4376309;32;20057;-73
2021/12/14 13:55:03;;;;;;;66.68;38.90;;;;;;;;;;4375222;32;19937;-74
2021/12/14 13:57:44;;;;;;;72.62;40.30;;;;;;;;;;4375636;32;20035;-74
2021/12/14 14:00:13;;;;;;;79.50;41.88;;;;;;;;;;4386621;32;20088;-74
2021/12/14 14:02:39;;;;;;;78.32;38.72;;;;;;;;;;4383402;32;20087;-74
2021/12/14 14:05:04;;;;;;;;;;;;;;;;;;4385420;32;20039;-74
2021/12/14 14:08:36;;;;;;;75.53;40.22;;;;;;;;;;4374711;32;19946;-74
2021/12/14 14:11:58;;;;;;;71.65;35.28;;;;;;;;;;4345670;32;20068;-74
2021/12/14 14:14:15;;;;;;;73.43;37.75;;;;;;;;;;4347372;32;20095;-74
2021/12/14 14:16:43;;;;;;;68.28;34.67;;;;;;;;;;4374672;32;20129;-74
2021/12/14 14:25:51;;;;;;;56.15;32.67;;;;;;;;;;4285030;33;20161;-74
2021/12/14 14:28:45;;;;;;;58.38;33.05;;;;;;;;;;4307420;33;20071;-74
2021/12/14 14:34:45;;;;;;;55.92;31.40;;;;;;;;;;4372834;32;20064;-74
2021/12/14 14:40:14;;;;;;;51.58;32.75;;;;;;;;;;4375153;32;20046;-74
2021/12/14 14:46:08;;;;;;;53.60;31.50;;;;;;;;;;4358102;33;20161;-75
2021/12/14 14:49:04;;;;;;;61.28;30.88;;;;;;;;;;4349931;33;20090;-75
2021/12/14 14:51:48;;;;;;;53.50;31.77;;;;;;;;;;4357951;33;20091;-75
2021/12/14 14:54:55;;;;;;;64.72;31.40;;;;;;;;;;4357640;33;20048;-74
2021/12/14 14:58:00;;;;;;;47.47;25.40;;;;;;;;;;4314427;33;20165;-74
2021/12/14 15:00:33;;;;;;;56.63;24.80;;;;;;;;;;4314912;33;20027;-74
2021/12/14 15:03:33;;;;;;;47.20;26.10;;;;;;;;;;4349421;32;20051;-74
2021/12/14 15:06:33;;;;;;;38.72;22.37;;;;;;;;;;4359981;32;20145;-75
2021/12/14 15:12:03;;;;;;;44.40;23.12;;;;;;;;;;4349992;32;20417;-74
2021/12/14 15:14:53;;;;;;;49.97;23.98;;;;;;;;;;4345526;33;20078;-74
2021/12/14 15:17:46;;;;;;;;;;;;;;;;;;;;;
2021/12/14 15:26:35;;;;;;;54.97;25.98;;;;;;;;;;4392393;32;20064;-74
2021/12/14 15:29:19;;;;;;;41.83;24.02;;;;;;;;;;4378019;32;20079;-74
2021/12/14 15:32:18;;;;;;;47.00;25.83;;;;;;;;;;4392832;32;20121;-75
2021/12/14 15:35:20;;;;;;;42.15;24.77;;;;;;;;;;4368213;32;20381;-74
2021/12/14 15:38:02;;;;;;;43.05;24.08;;;;;;;;;;4376554;32;20038;-74
2021/12/14 15:41:04;;;;;;;47.50;26.42;;;;;;;;;;4377741;32;20106;-74
2021/12/14 15:43:39;;;;;;;54.42;25.02;;;;;;;;;;4316135;33;20135;-74
2021/12/14 15:46:08;;;;;;;51.63;27.45;;;;;;;;;;4311691;33;20055;-74
2021/12/14 15:48:39;;;;;;;41.88;25.42;;;;;;;;;;4315318;33;20048;-74
2021/12/14 15:51:33;;;;;;;46.67;24.33;;;;;;;;;;4319990;32;20097;-74
2021/12/14 15:53:58;;;;;;;44.08;24.45;;;;;;;;;;4376206;32;20031;-74
2021/12/14 15:56:24;;;;;;;;;;;;;;;;;;4376440;32;20054;-73
2021/12/14 16:01:58;;;;;;;47.38;23.85;;;;;;;;;;4370040;32;20073;-73
2021/12/14 16:04:27;;;;;;;52.75;25.65;;;;;;;;;;4376484;32;20084;-73
2021/12/14 16:06:55;;;;;;;46.55;23.17;;;;;;;;;;4376743;32;20035;-73
2021/12/14 16:09:24;;;;;;;42.88;23.90;;;;;;;;;;4382177;32;20046;-72
2021/12/14 16:17:26;;;;;;;51.10;25.17;;;;;;;;;;4375406;32;20482;-72
2021/12/14 16:19:52;;;;;;;47.78;27.23;;;;;;;;;;4377870;32;20069;-72
2021/12/14 16:22:22;;;;;;;42.05;24.45;;;;;;;;;;4376336;32;20038;-72
2021/12/14 16:25:04;;;;;;;45.25;26.08;;;;;;;;;;4362340;32;20031;-72
2021/12/14 16:27:35;;;;;;;45.28;25.52;;;;;;;;;;4376237;32;20410;-73
2021/12/14 16:30:06;;;;;;;55.22;26.70;;;;;;;;;;4359534;32;20042;-72
2021/12/14 16:32:31;;;;;;;48.42;26.30;;;;;;;;;;4360591;32;20102;-73
2021/12/14 16:35:05;;;;;;;;;;;;;;;;;;4376438;32;20089;-73
2021/12/14 16:38:09;;;;;;;;;;;;;;;;;;;;;
2021/12/14 16:44:51;;;;;;;;;;;;;;;;;;;;;
2021/12/14 16:47:15;;;;;;;54.80;32.33;;;;;;;;;;4367642;32;20074;-72
2021/12/14 16:50:03;;;;;;;59.20;33.80;;;;;;;;;;4375515;32;20106;-72
2021/12/14 16:55:57;;;;;;;65.12;35.60;;;;;;;;;;4359151;32;20280;-73
2021/12/14 16:58:34;;;;;;;65.30;32.53;;;;;;;;;;4345245;33;20051;-73
2021/12/14 17:01:30;;;;;;;59.70;33.15;;;;;;;;;;4372441;32;20027;-73
2021/12/14 17:04:37;;;;;;;77.80;35.40;;;;;;;;;;4374089;32;20034;-73
2021/12/14 17:07:28;;;;;;;72.22;36.17;;;;;;;;;;4360397;33;20082;-73
2021/12/14 17:10:32;;;;;;;69.97;36.53;;;;;;;;;;4351887;32;20062;-72
2021/12/14 17:13:10;;;;;;;63.40;36.17;;;;;;;;;;4367977;32;20065;-72
2021/12/14 17:15:41;;;;;;;79.15;37.83;;;;;;;;;;4376435;32;20092;-72
2021/12/14 17:18:19;;;;;;;75.57;36.92;;;;;;;;;;4362140;32;20381;-72
2021/12/14 17:20:45;;;;;;;57.38;34.30;;;;;;;;;;4375500;32;20043;-72
2021/12/14 17:23:10;;;;;;;;;;;;;;;;;;4376390;32;20397;-73
2021/12/14 17:25:38;;;;;;;70.68;38.40;;;;;;;;;;4374935;32;20327;-73
2021/12/14 17:28:41;;;;;;;79.55;38.70;;;;;;;;;;4375258;32;20180;-73
2021/12/14 17:33:57;;;;;;;;;;;;;;;;;;4361687;32;20041;-73
2021/12/14 17:36:28;;;;;;;71.80;39.22;;;;;;;;;;4361361;32;19935;-73
2021/12/14 17:38:54;;;;;;;65.78;38.78;;;;;;;;;;4360849;32;20019;-73
2021/12/14 17:41:29;;;;;;;78.35;39.13;;;;;;;;;;4371437;32;20024;-73
2021/12/14 17:44:06;;;;;;;82.68;40.97;;;;;;;;;;4368999;32;20108;-72
2021/12/14 17:46:34;;;;;;;71.30;39.78;;;;;;;;;;4376515;32;20080;-73
2021/12/14 17:49:16;;;;;;;68.43;36.92;;;;;;;;;;4384728;32;20023;-72
2021/12/14 17:55:08;;;;;;;74.87;36.72;;;;;;;;;;4314847;33;20047;-72
2021/12/14 17:57:47;;;;;;;68.97;38.72;;;;;;;;;;4314978;32;20135;-72
2021/12/14 18:00:22;;;;;;;72.57;38.42;;;;;;;;;;4375705;32;20031;-72
2021/12/14 18:03:08;;;;;;;80.38;40.53;;;;;;;;;;4374681;32;20070;-73
2021/12/14 18:05:47;;;;;;;73.35;40.42;;;;;;;;;;4374291;32;20023;-72
2021/12/14 18:08:22;;;;;;;89.75;43.33;;;;;;;;;;4358947;33;20042;-72
2021/12/14 18:11:07;;;;;;;83.12;44.13;;;;;;;;;;4360108;33;20019;-72
2021/12/14 18:13:32;;;;;;;83.80;42.22;;;;;;;;;;4360544;32;20078;-72
2021/12/14 18:16:04;;;;;;;;;;;;;;;;;;4373756;32;20030;-72
2021/12/14 18:24:24;;;;;;;82.85;40.85;;;;;;;;;;4366736;32;20029;-72
2021/12/14 18:33:14;;;;;;;89.32;40.78;;;;;;;;;;4330068;33;20131;-72
2021/12/14 18:35:44;;;;;;;86.12;40.12;;;;;;;;;;4331517;33;20023;-72
2021/12/14 18:38:49;;;;;;;75.40;39.15;;;;;;;;;;4331739;33;20035;-72
2021/12/14 18:41:41;;;;;;;81.50;42.38;;;;;;;;;;4283647;33;20021;-73
2021/12/14 18:53:29;;;;;;;79.68;44.00;;;;;;;;;;4316867;33;20095;-72
2021/12/14 18:56:07;;;;;;;84.32;44.63;;;;;;;;;;4303969;33;20507;-72
2021/12/14 18:58:46;;;;;;;80.32;44.40;;;;;;;;;;4332821;32;20053;-73
2021/12/14 19:04:37;;;;;;;83.72;45.50;;;;;;;;;;4353110;32;20103;-73
2021/12/14 19:10:45;;;;;;;;;;;;;;;;;;;;;
2021/12/14 19:13:24;;;;;;;80.22;44.75;;;;;;;;;;4362247;32;20031;-73
2021/12/14 19:15:55;;;;;;;86.72;44.42;;;;;;;;;;4370580;32;20349;-73
2021/12/14 19:18:30;;;;;;;85.70;46.22;;;;;;;;;;4377376;32;20094;-73
2021/12/14 19:21:00;;;;;;;80.47;42.47;;;;;;;;;;4378124;32;20392;-73
2021/12/14 19:23:45;;;;;;;82.07;43.13;;;;;;;;;;4378197;32;20045;-73
2021/12/14 19:26:49;;;;;;;83.80;43.03;;;;;;;;;;4376226;32;20026;-72
2021/12/14 19:29:20;;;;;;;76.85;40.28;;;;;;;;;;4376720;32;20058;-72
2021/12/14 19:31:50;;;;;;;77.60;41.37;;;;;;;;;;4375552;32;20045;-73
2021/12/14 19:43:24;;;;;;;77.47;41.17;;;;;;;;;;4315798;33;20483;-72
2021/12/14 19:45:50;;;;;;;73.25;41.65;;;;;;;;;;4374291;32;20053;-73
2021/12/14 19:48:38;;;;;;;80.80;41.85;;;;;;;;;;4376751;32;20357;-72
2021/12/14 19:51:15;;;;;;;75.20;41.17;;;;;;;;;;4376806;32;20035;-73
2021/12/14 19:54:00;;;;;;;81.15;42.60;;;;;;;;;;4378210;32;20035;-73
2021/12/14 19:56:26;;;;;;;86.87;45.30;;;;;;;;;;4376604;32;20051;-73
2021/12/14 19:58:52;;;;;;;;;;;;;;;;;;4376254;32;20077;-74
2021/12/14 20:07:18;;;;;;;94.35;46.47;;;;;;;;;;4376736;32;20462;-73
2021/12/14 20:09:53;;;;;;;90.65;47.42;;;;;;;;;;4374904;32;20035;-73
2021/12/14 20:12:31;;;;;;;;;;;;;;;;;;;;;
2021/12/14 20:17:52;;;;;;;92.12;46.50;;;;;;;;;;4371202;32;20089;-73
2021/12/14 20:20:28;;;;;;;91.32;44.80;;;;;;;;;;4375878;32;20066;-73
2021/12/14 20:23:00;;;;;;;85.60;44.75;;;;;;;;;;4375058;32;20069;-73